Home > Products > Valid Products > TAF

000
FTUS45 KBOU 121727
TAFBJC
TAF
KBJC 121727Z 1218/1318 36005KT P6SM FEW100 SCT220
     FM121900 03007KT P6SM FEW100 SCT220
     FM130100 31009KT P6SM SCT220
     FM130600 28007KT P6SM FEW100 SCT220=



000
FTUS45 KBOU 121727
TAFDEN
TAF
KDEN 121727Z 1218/1324 30008KT P6SM SCT110 SCT220
     FM122000 07008KT P6SM FEW110 SCT220
     FM130200 16009KT P6SM SCT220
     FM130600 20010KT P6SM FEW110 SCT220
     FM131300 26008KT P6SM SCT220=



000
FTUS45 KBOU 121727
TAFAPA
TAF
KAPA 121727Z 1218/1318 03006KT P6SM FEW100 SCT220
     FM122100 09006KT P6SM FEW110 SCT220
     FM130200 16010KT P6SM SCT220
     FM130700 19008KT P6SM FEW110 SCT220
     FM131400 29006KT P6SM SCT220=



000
FTUS45 KBOU 121523 AAA
TAFAPA
TAF AMD
KAPA 121523Z 1215/1312 VRB04KT P6SM FEW100
     FM121800 14006KT P6SM SCT100 BKN200
     FM122000 09006KT P6SM FEW130 SCT200
     FM130200 16010KT P6SM SCT220
     FM130700 19008KT P6SM FEW220=



000
FTUS45 KBOU 121512 AAB
TAFDEN
TAF AMD
KDEN 121512Z 1215/1318 26008KT P6SM SCT110 BKN180
     FM122000 07007KT P6SM FEW140 SCT220
     FM130200 16009KT P6SM SCT220
     FM130700 20010KT P6SM FEW220=



000
FTUS45 KBOU 121234 AAA
TAFDEN
TAF AMD
KDEN 121234Z 1213/1318 23010KT P6SM SCT220
     FM121600 16010KT P6SM FEW100 SCT140 BKN220
     FM122000 07007KT P6SM FEW140 SCT220
     FM130200 16009KT P6SM SCT220
     FM130700 20010KT P6SM FEW220=



000
FTUS45 KBOU 121234 AAA
TAFBJC
TAF AMD
KBJC 121234Z 1213/1312 VRB05KT P6SM FEW120 SCT220
     FM121900 08007KT P6SM FEW120 SCT220
     FM130100 26009KT P6SM SCT220
     FM130700 28007KT P6SM FEW220=



000
FTUS45 KBOU 121128
TAFDEN
TAF
KDEN 121128Z 1212/1318 15010KT P6SM SCT220
     FM121600 16010KT P6SM FEW100 SCT140 BKN220
     FM122000 07007KT P6SM FEW140 SCT220
     FM130200 16009KT P6SM SCT220
     FM130700 20010KT P6SM FEW220=



000
FTUS45 KBOU 121128
TAFBJC
TAF
KBJC 121128Z 1212/1312 31012KT P6SM SCT220
     FM121500 VRB05KT P6SM FEW080 SCT120 BKN220
     FM121900 08007KT P6SM FEW120 SCT220
     FM130100 26009KT P6SM SCT220
     FM130700 28007KT P6SM FEW220=



000
FTUS45 KBOU 121128
TAFDEN
TAF
KDEN 121128Z 1212/1318 15010KT P6SM SCT220
     FM121600 16010KT P6SM FEW100 SCT140 BKN220
     FM122000 07007KT P6SM FEW140 SCT220
     FM130200 16009KT P6SM SCT220
     FM130700 20010KT P6SM FEW220=



000
FTUS45 KBOU 121128
TAFBJC
TAF
KBJC 121128Z 1212/1312 31012KT P6SM SCT220
     FM121500 VRB05KT P6SM FEW080 SCT120 BKN220
     FM121900 08007KT P6SM FEW120 SCT220
     FM130100 26009KT P6SM SCT220
     FM130700 28007KT P6SM FEW220=



000
FTUS45 KBOU 121128
TAFAPA
TAF
KAPA 121128Z 1212/1312 17006KT P6SM SCT220
     FM121600 14008KT P6SM FEW090 SCT140 BKN220
     FM122000 09006KT P6SM FEW130 SCT200
     FM130200 16010KT P6SM SCT220
     FM130700 19008KT P6SM FEW220=



000
FTUS45 KBOU 121128
TAFDEN
TAF
KDEN 121128Z 1212/1318 15010KT P6SM SCT220
     FM121600 16010KT P6SM FEW100 SCT140 BKN220
     FM122000 07007KT P6SM FEW140 SCT220
     FM130200 16009KT P6SM SCT220
     FM130700 20010KT P6SM FEW220=



000
FTUS45 KBOU 121128
TAFBJC
TAF
KBJC 121128Z 1212/1312 31012KT P6SM SCT220
     FM121500 VRB05KT P6SM FEW080 SCT120 BKN220
     FM121900 08007KT P6SM FEW120 SCT220
     FM130100 26009KT P6SM SCT220
     FM130700 28007KT P6SM FEW220=



000
FTUS45 KBOU 121128
TAFAPA
TAF
KAPA 121128Z 1212/1312 17006KT P6SM SCT220
     FM121600 14008KT P6SM FEW090 SCT140 BKN220
     FM122000 09006KT P6SM FEW130 SCT200
     FM130200 16010KT P6SM SCT220
     FM130700 19008KT P6SM FEW220=



000
FTUS45 KBOU 121128
TAFAPA
TAF
KAPA 121128Z 1212/1312 17006KT P6SM SCT220
     FM121600 14008KT P6SM FEW090 SCT140 BKN220
     FM122000 09006KT P6SM FEW130 SCT200
     FM130200 16010KT P6SM SCT220
     FM130700 19008KT P6SM FEW220=



000
FTUS45 KBOU 120901 AAA
TAFDEN
TAF AMD
KDEN 120901Z 1209/1312 15010KT P6SM FEW220
     FM121600 16010KT P6SM FEW100 SCT140 SCT220
     FM122000 07007KT P6SM FEW140 SCT220
     FM130200 19009KT P6SM SCT220=



000
FTUS45 KBOU 120528
TAFDEN
TAF
KDEN 120528Z 1206/1312 18012KT P6SM SCT220
     FM120900 23009KT P6SM FEW120 SCT220
     FM121600 16010KT P6SM FEW080 SCT120 BKN220
     FM122000 07007KT P6SM FEW140 SCT220
     FM130200 19009KT P6SM SCT220=



000
FTUS45 KBOU 120528
TAFAPA
TAF
KAPA 120528Z 1206/1306 17011KT P6SM FEW140 SCT220
     FM120900 20007KT P6SM FEW130 SCT220
     FM121600 14008KT P6SM FEW080 SCT120 BKN220
     FM122000 09006KT P6SM FEW130 SCT200
     FM130200 16010KT P6SM SCT220=



000
FTUS45 KBOU 120528
TAFDEN
TAF
KDEN 120528Z 1206/1312 18012KT P6SM SCT220
     FM120900 23009KT P6SM FEW120 SCT220
     FM121600 16010KT P6SM FEW080 SCT120 BKN220
     FM122000 07007KT P6SM FEW140 SCT220
     FM130200 19009KT P6SM SCT220=



000
FTUS45 KBOU 120528
TAFAPA
TAF
KAPA 120528Z 1206/1306 17011KT P6SM FEW140 SCT220
     FM120900 20007KT P6SM FEW130 SCT220
     FM121600 14008KT P6SM FEW080 SCT120 BKN220
     FM122000 09006KT P6SM FEW130 SCT200
     FM130200 16010KT P6SM SCT220=



000
FTUS45 KBOU 120528
TAFBJC
TAF
KBJC 120528Z 1206/1306 12007KT P6SM FEW110 SCT220
     FM120800 26010KT P6SM SCT120 SCT220
     FM121500 VRB05KT P6SM FEW080 SCT120 BKN220
     FM121900 08007KT P6SM FEW120 SCT220
     FM130100 26009KT P6SM SCT220=



000
FTUS45 KBOU 120528
TAFBJC
TAF
KBJC 120528Z 1206/1306 12007KT P6SM FEW110 SCT220
     FM120800 26010KT P6SM SCT120 SCT220
     FM121500 VRB05KT P6SM FEW080 SCT120 BKN220
     FM121900 08007KT P6SM FEW120 SCT220
     FM130100 26009KT P6SM SCT220=



000
FTUS45 KBOU 120528
TAFAPA
TAF
KAPA 120528Z 1206/1306 17011KT P6SM FEW140 SCT220
     FM120900 20007KT P6SM FEW130 SCT220
     FM121600 14008KT P6SM FEW080 SCT120 BKN220
     FM122000 09006KT P6SM FEW130 SCT200
     FM130200 16010KT P6SM SCT220=



000
FTUS45 KBOU 120528
TAFDEN
TAF
KDEN 120528Z 1206/1312 18012KT P6SM SCT220
     FM120900 23009KT P6SM FEW120 SCT220
     FM121600 16010KT P6SM FEW080 SCT120 BKN220
     FM122000 07007KT P6SM FEW140 SCT220
     FM130200 19009KT P6SM SCT220=



000
FTUS45 KBOU 120528
TAFBJC
TAF
KBJC 120528Z 1206/1306 12007KT P6SM FEW110 SCT220
     FM120800 26010KT P6SM SCT120 SCT220
     FM121500 VRB05KT P6SM FEW080 SCT120 BKN220
     FM121900 08007KT P6SM FEW120 SCT220
     FM130100 26009KT P6SM SCT220=



000
FTUS45 KBOU 120301 AAB
TAFDEN
TAF AMD
KDEN 120301Z 1203/1306 17012KT P6SM FEW110 SCT220
     FM120700 21010KT P6SM SCT120 BKN200
     FM121600 15010KT P6SM FEW080 BKN120
     FM122000 08007KT P6SM SCT220
     FM130200 16007KT P6SM SCT220=



000
FTUS45 KBOU 120301 AAB
TAFDEN
TAF AMD
KDEN 120301Z 1203/1306 17012KT P6SM FEW110 SCT220
     FM120700 21010KT P6SM SCT120 BKN200
     FM121600 15010KT P6SM FEW080 BKN120
     FM122000 08007KT P6SM SCT220
     FM130200 16007KT P6SM SCT220=



000
FTUS45 KBOU 120301 AAB
TAFDEN
TAF AMD
KDEN 120301Z 1203/1306 17012KT P6SM FEW110 SCT220
     FM120700 21010KT P6SM SCT120 BKN200
     FM121600 15010KT P6SM FEW080 BKN120
     FM122000 08007KT P6SM SCT220
     FM130200 16007KT P6SM SCT220=



000
FTUS45 KBOU 120218 AAB
TAFAPA
TAF AMD
KAPA 120218Z 1202/1224 15008KT P6SM FEW140 SCT220
     FM120500 18007KT P6SM FEW150 SCT220
     FM121600 12007KT P6SM FEW080 BKN120
     FM122000 09005KT P6SM SCT200=



000
FTUS45 KBOU 120218 AAB
TAFAPA
TAF AMD
KAPA 120218Z 1202/1224 15008KT P6SM FEW140 SCT220
     FM120500 18007KT P6SM FEW150 SCT220
     FM121600 12007KT P6SM FEW080 BKN120
     FM122000 09005KT P6SM SCT200=



000
FTUS45 KBOU 120218 AAB
TAFAPA
TAF AMD
KAPA 120218Z 1202/1224 15008KT P6SM FEW140 SCT220
     FM120500 18007KT P6SM FEW150 SCT220
     FM121600 12007KT P6SM FEW080 BKN120
     FM122000 09005KT P6SM SCT200=



000
FTUS45 KBOU 120140 AAA
TAFDEN
TAF AMD
KDEN 120140Z 1202/1306 14014KT P6SM FEW110 SCT220
     FM120400 17011KT P6SM FEW120 SCT220
     FM120700 21010KT P6SM SCT120 BKN220
     FM121600 15010KT P6SM FEW080 BKN120
     FM122000 08007KT P6SM SCT220
     FM130200 16007KT P6SM SCT220=



000
FTUS45 KBOU 120140 AAA
TAFDEN
TAF AMD
KDEN 120140Z 1202/1306 14014KT P6SM FEW110 SCT220
     FM120400 17011KT P6SM FEW120 SCT220
     FM120700 21010KT P6SM SCT120 BKN220
     FM121600 15010KT P6SM FEW080 BKN120
     FM122000 08007KT P6SM SCT220
     FM130200 16007KT P6SM SCT220=



000
FTUS45 KBOU 120140 AAA
TAFDEN
TAF AMD
KDEN 120140Z 1202/1306 14014KT P6SM FEW110 SCT220
     FM120400 17011KT P6SM FEW120 SCT220
     FM120700 21010KT P6SM SCT120 BKN220
     FM121600 15010KT P6SM FEW080 BKN120
     FM122000 08007KT P6SM SCT220
     FM130200 16007KT P6SM SCT220=



000
FTUS45 KBOU 120104 AAA
TAFAPA
TAF AMD
KAPA 120104Z 1201/1224 11013KT P6SM FEW090 SCT150 BKN220
     FM120300 15008KT P6SM SCT150 SCT220
     FM120600 18006KT P6SM FEW150 SCT220
     FM121600 12007KT P6SM FEW080 BKN120
     FM122000 09005KT P6SM SCT200=



000
FTUS45 KBOU 120104 AAA
TAFAPA
TAF AMD
KAPA 120104Z 1201/1224 11013KT P6SM FEW090 SCT150 BKN220
     FM120300 15008KT P6SM SCT150 SCT220
     FM120600 18006KT P6SM FEW150 SCT220
     FM121600 12007KT P6SM FEW080 BKN120
     FM122000 09005KT P6SM SCT200=



000
FTUS45 KBOU 120104 AAA
TAFAPA
TAF AMD
KAPA 120104Z 1201/1224 11013KT P6SM FEW090 SCT150 BKN220
     FM120300 15008KT P6SM SCT150 SCT220
     FM120600 18006KT P6SM FEW150 SCT220
     FM121600 12007KT P6SM FEW080 BKN120
     FM122000 09005KT P6SM SCT200=



000
FTUS45 KBOU 120058 AAA
TAFBJC
TAF AMD
KBJC 120058Z 1201/1224 06010KT P6SM FEW070 BKN140
     FM120200 VRB05KT P6SM SCT080 BKN140
     FM120400 26007KT P6SM SCT140 BKN220
     FM121500 VRB05KT P6SM FEW080 BKN120
     FM121800 10007KT P6SM FEW120 SCT220=



000
FTUS45 KBOU 120058 AAA
TAFBJC
TAF AMD
KBJC 120058Z 1201/1224 06010KT P6SM FEW070 BKN140
     FM120200 VRB05KT P6SM SCT080 BKN140
     FM120400 26007KT P6SM SCT140 BKN220
     FM121500 VRB05KT P6SM FEW080 BKN120
     FM121800 10007KT P6SM FEW120 SCT220=



000
FTUS45 KBOU 120058 AAA
TAFBJC
TAF AMD
KBJC 120058Z 1201/1224 06010KT P6SM FEW070 BKN140
     FM120200 VRB05KT P6SM SCT080 BKN140
     FM120400 26007KT P6SM SCT140 BKN220
     FM121500 VRB05KT P6SM FEW080 BKN120
     FM121800 10007KT P6SM FEW120 SCT220=



000
FTUS45 KBOU 112338
TAFAPA
TAF
KAPA 112338Z 1200/1224 32013KT P6SM FEW090 SCT150 BKN220
     FM120030 07007KT P6SM FEW150 SCT200
     FM120300 17006KT P6SM FEW150 SCT220
     FM121600 12007KT P6SM FEW080 BKN120
     FM122000 09005KT P6SM SCT200=



000
FTUS45 KBOU 112338
TAFDEN
TAF
KDEN 112338Z 1200/1306 13011KT P6SM FEW110 SCT220
     FM120200 17007KT P6SM FEW110 SCT220
     FM121000 19012KT P6SM SCT120 BKN220
     FM121600 15010KT P6SM FEW080 BKN120
     FM122000 08007KT P6SM SCT220
     FM130200 16007KT P6SM SCT220=



000
FTUS45 KBOU 112338
TAFBJC
TAF
KBJC 112338Z 1200/1224 27012KT P6SM SCT150 SCT220
     FM120100 VRB05KT P6SM SCT150 SCT220
     FM120300 28006KT P6SM SCT150 SCT220
     FM121500 VRB05KT P6SM FEW080 BKN120
     FM121800 10007KT P6SM FEW120 SCT220=



000
FTUS45 KBOU 112338
TAFDEN
TAF
KDEN 112338Z 1200/1306 13011KT P6SM FEW110 SCT220
     FM120200 17007KT P6SM FEW110 SCT220
     FM121000 19012KT P6SM SCT120 BKN220
     FM121600 15010KT P6SM FEW080 BKN120
     FM122000 08007KT P6SM SCT220
     FM130200 16007KT P6SM SCT220=



000
FTUS45 KBOU 112338
TAFAPA
TAF
KAPA 112338Z 1200/1224 32013KT P6SM FEW090 SCT150 BKN220
     FM120030 07007KT P6SM FEW150 SCT200
     FM120300 17006KT P6SM FEW150 SCT220
     FM121600 12007KT P6SM FEW080 BKN120
     FM122000 09005KT P6SM SCT200=



000
FTUS45 KBOU 112338
TAFBJC
TAF
KBJC 112338Z 1200/1224 27012KT P6SM SCT150 SCT220
     FM120100 VRB05KT P6SM SCT150 SCT220
     FM120300 28006KT P6SM SCT150 SCT220
     FM121500 VRB05KT P6SM FEW080 BKN120
     FM121800 10007KT P6SM FEW120 SCT220=



000
FTUS45 KBOU 112338
TAFDEN
TAF
KDEN 112338Z 1200/1306 13011KT P6SM FEW110 SCT220
     FM120200 17007KT P6SM FEW110 SCT220
     FM121000 19012KT P6SM SCT120 BKN220
     FM121600 15010KT P6SM FEW080 BKN120
     FM122000 08007KT P6SM SCT220
     FM130200 16007KT P6SM SCT220=



000
FTUS45 KBOU 112338
TAFAPA
TAF
KAPA 112338Z 1200/1224 32013KT P6SM FEW090 SCT150 BKN220
     FM120030 07007KT P6SM FEW150 SCT200
     FM120300 17006KT P6SM FEW150 SCT220
     FM121600 12007KT P6SM FEW080 BKN120
     FM122000 09005KT P6SM SCT200=



000
FTUS45 KBOU 112338
TAFBJC
TAF
KBJC 112338Z 1200/1224 27012KT P6SM SCT150 SCT220
     FM120100 VRB05KT P6SM SCT150 SCT220
     FM120300 28006KT P6SM SCT150 SCT220
     FM121500 VRB05KT P6SM FEW080 BKN120
     FM121800 10007KT P6SM FEW120 SCT220=



000
FTUS45 KBOU 112221 AAC
TAFDEN
TAF AMD
KDEN 112221Z 1122/1224 10013KT P6SM FEW110 SCT220
     FM120300 19012KT P6SM FEW140 SCT220
     FM121600 12010KT P6SM SCT220
     FM122000 05007KT P6SM SCT220=



000
FTUS45 KBOU 112221 AAC
TAFDEN
TAF AMD
KDEN 112221Z 1122/1224 10013KT P6SM FEW110 SCT220
     FM120300 19012KT P6SM FEW140 SCT220
     FM121600 12010KT P6SM SCT220
     FM122000 05007KT P6SM SCT220=



000
FTUS45 KBOU 112105 AAB
TAFAPA
TAF AMD
KAPA 112105Z 1121/1218 32013KT P6SM FEW090 SCT140 BKN220
      TEMPO 1121/1123 32013G22KT
     FM112300 30008KT P6SM FEW140 SCT200
     FM120400 18008KT P6SM FEW140 SCT220
     FM121600 12008KT P6SM SCT220=



000
FTUS45 KBOU 112024 AAB
TAFDEN
TAF AMD
KDEN 112024Z 1120/1224 05007KT P6SM FEW120 SCT220
     FM120300 19010KT P6SM FEW140 SCT220
     FM121600 12010KT P6SM SCT220
     FM122000 05007KT P6SM SCT220=



000
FTUS45 KBOU 111916 AAA
TAFBJC
TAF AMD
KBJC 111916Z 1119/1218 26014G20KT P6SM FEW120 SCT220
     FM120400 29010KT P6SM FEW130 SCT220
     FM121600 10007KT P6SM FEW130 SCT220=



000
FTUS45 KBOU 111909 AAA
TAFAPA
TAF AMD
KAPA 111909Z 1119/1218 30010KT P6SM FEW120 SCT220
     FM112000 32008KT P6SM SCT120 BKN200
     FM120400 18008KT P6SM FEW140 SCT220
     FM121600 12008KT P6SM SCT220=



000
FTUS45 KBOU 111909 AAA
TAFAPA
TAF AMD
KAPA 111909Z 1119/1218 30010KT P6SM FEW120 SCT220
     FM112000 32008KT P6SM SCT120 BKN200
     FM120400 18008KT P6SM FEW140 SCT220
     FM121600 12008KT P6SM SCT220=



000
FTUS45 KBOU 111909 AAA
TAFAPA
TAF AMD
KAPA 111909Z 1119/1218 30010KT P6SM FEW120 SCT220
     FM112000 32008KT P6SM SCT120 BKN200
     FM120400 18008KT P6SM FEW140 SCT220
     FM121600 12008KT P6SM SCT220=



000
FTUS45 KBOU 111908 AAA
TAFDEN
TAF AMD
KDEN 111908Z 1119/1224 29014G20KT P6SM FEW120 SCT220
     FM112100 31010KT P6SM SCT120 BKN200
     FM120500 19010KT P6SM FEW140 SCT220
     FM121600 12010KT P6SM SCT220
     FM122000 05007KT P6SM SCT220=



000
FTUS45 KBOU 111908 AAA
TAFDEN
TAF AMD
KDEN 111908Z 1119/1224 29014G20KT P6SM FEW120 SCT220
     FM112100 31010KT P6SM SCT120 BKN200
     FM120500 19010KT P6SM FEW140 SCT220
     FM121600 12010KT P6SM SCT220
     FM122000 05007KT P6SM SCT220=



000
FTUS45 KBOU 111908 AAA
TAFDEN
TAF AMD
KDEN 111908Z 1119/1224 29014G20KT P6SM FEW120 SCT220
     FM112100 31010KT P6SM SCT120 BKN200
     FM120500 19010KT P6SM FEW140 SCT220
     FM121600 12010KT P6SM SCT220
     FM122000 05007KT P6SM SCT220=



000
FTUS45 KBOU 111725
TAFBJC
TAF
KBJC 111725Z 1118/1218 28012KT P6SM FEW120 SCT220
     FM112200 26010KT P6SM SCT120 BKN220
     FM120400 29010KT P6SM FEW130 SCT220
     FM121600 10007KT P6SM FEW130 SCT220=



000
FTUS45 KBOU 111725
TAFAPA
TAF
KAPA 111725Z 1118/1218 24006KT P6SM FEW120 SCT220
     FM112000 32008KT P6SM SCT120 BKN200
     FM120400 18008KT P6SM FEW140 SCT220
     FM121600 12008KT P6SM SCT220=



000
FTUS45 KBOU 111725
TAFDEN
TAF
KDEN 111725Z 1118/1224 22010KT P6SM FEW120 SCT220
     FM112100 30008KT P6SM SCT120 BKN200
     FM120500 19010KT P6SM FEW140 SCT220
     FM121600 12010KT P6SM SCT220
     FM122000 05007KT P6SM SCT220=



000
FTUS45 KBOU 111725
TAFDEN
TAF
KDEN 111725Z 1118/1224 22010KT P6SM FEW120 SCT220
     FM112100 30008KT P6SM SCT120 BKN200
     FM120500 19010KT P6SM FEW140 SCT220
     FM121600 12010KT P6SM SCT220
     FM122000 05007KT P6SM SCT220=



000
FTUS45 KBOU 111725
TAFAPA
TAF
KAPA 111725Z 1118/1218 24006KT P6SM FEW120 SCT220
     FM112000 32008KT P6SM SCT120 BKN200
     FM120400 18008KT P6SM FEW140 SCT220
     FM121600 12008KT P6SM SCT220=



000
FTUS45 KBOU 111725
TAFBJC
TAF
KBJC 111725Z 1118/1218 28012KT P6SM FEW120 SCT220
     FM112200 26010KT P6SM SCT120 BKN220
     FM120400 29010KT P6SM FEW130 SCT220
     FM121600 10007KT P6SM FEW130 SCT220=



000
FTUS45 KBOU 111725
TAFDEN
TAF
KDEN 111725Z 1118/1224 22010KT P6SM FEW120 SCT220
     FM112100 30008KT P6SM SCT120 BKN200
     FM120500 19010KT P6SM FEW140 SCT220
     FM121600 12010KT P6SM SCT220
     FM122000 05007KT P6SM SCT220=



000
FTUS45 KBOU 111725
TAFAPA
TAF
KAPA 111725Z 1118/1218 24006KT P6SM FEW120 SCT220
     FM112000 32008KT P6SM SCT120 BKN200
     FM120400 18008KT P6SM FEW140 SCT220
     FM121600 12008KT P6SM SCT220=



000
FTUS45 KBOU 111725
TAFBJC
TAF
KBJC 111725Z 1118/1218 28012KT P6SM FEW120 SCT220
     FM112200 26010KT P6SM SCT120 BKN220
     FM120400 29010KT P6SM FEW130 SCT220
     FM121600 10007KT P6SM FEW130 SCT220=



000
FTUS45 KBOU 111504 AAA
TAFDEN
TAF AMD
KDEN 111504Z 1115/1218 21008KT P6SM FEW220
     FM111700 22010KT P6SM FEW120 SCT220
     FM112100 32008KT P6SM SCT120 BKN200
     FM120100 05006KT P6SM SCT130 BKN220
     FM120500 18010KT P6SM FEW140 SCT220
     FM121400 12010KT P6SM SCT220=



000
FTUS45 KBOU 111504 AAA
TAFDEN
TAF AMD
KDEN 111504Z 1115/1218 21008KT P6SM FEW220
     FM111700 22010KT P6SM FEW120 SCT220
     FM112100 32008KT P6SM SCT120 BKN200
     FM120100 05006KT P6SM SCT130 BKN220
     FM120500 18010KT P6SM FEW140 SCT220
     FM121400 12010KT P6SM SCT220=



000
FTUS45 KBOU 111504 AAA
TAFDEN
TAF AMD
KDEN 111504Z 1115/1218 21008KT P6SM FEW220
     FM111700 22010KT P6SM FEW120 SCT220
     FM112100 32008KT P6SM SCT120 BKN200
     FM120100 05006KT P6SM SCT130 BKN220
     FM120500 18010KT P6SM FEW140 SCT220
     FM121400 12010KT P6SM SCT220=



000
FTUS45 KBOU 111130
TAFDEN
TAF
KDEN 111130Z 1112/1218 19010KT P6SM FEW220
     FM111700 22010KT P6SM FEW120 SCT220
     FM112100 32008KT P6SM SCT120 BKN200
     FM120100 05006KT P6SM SCT130 BKN220
     FM120500 18010KT P6SM FEW140 SCT220
     FM121400 14010KT P6SM SCT220=



000
FTUS45 KBOU 111130
TAFAPA
TAF
KAPA 111130Z 1112/1212 17007KT P6SM SCT220
     FM111700 24006KT P6SM FEW120 SCT220
     FM112000 34008KT P6SM SCT120 BKN200
     FM112300 03006KT P6SM SCT130 BKN220
     FM120400 18008KT P6SM FEW140 SCT220=



000
FTUS45 KBOU 111130
TAFAPA
TAF
KAPA 111130Z 1112/1212 17007KT P6SM SCT220
     FM111700 24006KT P6SM FEW120 SCT220
     FM112000 34008KT P6SM SCT120 BKN200
     FM112300 03006KT P6SM SCT130 BKN220
     FM120400 18008KT P6SM FEW140 SCT220=



000
FTUS45 KBOU 111130
TAFAPA
TAF
KAPA 111130Z 1112/1212 17007KT P6SM SCT220
     FM111700 24006KT P6SM FEW120 SCT220
     FM112000 34008KT P6SM SCT120 BKN200
     FM112300 03006KT P6SM SCT130 BKN220
     FM120400 18008KT P6SM FEW140 SCT220=



000
FTUS45 KBOU 111130
TAFDEN
TAF
KDEN 111130Z 1112/1218 19010KT P6SM FEW220
     FM111700 22010KT P6SM FEW120 SCT220
     FM112100 32008KT P6SM SCT120 BKN200
     FM120100 05006KT P6SM SCT130 BKN220
     FM120500 18010KT P6SM FEW140 SCT220
     FM121400 14010KT P6SM SCT220=



000
FTUS45 KBOU 111130
TAFBJC
TAF
KBJC 111130Z 1112/1212 VRB05KT P6SM FEW220
     FM111700 28012KT P6SM FEW120 SCT220
     FM112200 26010KT P6SM SCT120 BKN220
     FM120400 30008KT P6SM FEW130 SCT220=



000
FTUS45 KBOU 111130
TAFBJC
TAF
KBJC 111130Z 1112/1212 VRB05KT P6SM FEW220
     FM111700 28012KT P6SM FEW120 SCT220
     FM112200 26010KT P6SM SCT120 BKN220
     FM120400 30008KT P6SM FEW130 SCT220=



000
FTUS45 KBOU 111130
TAFDEN
TAF
KDEN 111130Z 1112/1218 19010KT P6SM FEW220
     FM111700 22010KT P6SM FEW120 SCT220
     FM112100 32008KT P6SM SCT120 BKN200
     FM120100 05006KT P6SM SCT130 BKN220
     FM120500 18010KT P6SM FEW140 SCT220
     FM121400 14010KT P6SM SCT220=



000
FTUS45 KBOU 111130
TAFBJC
TAF
KBJC 111130Z 1112/1212 VRB05KT P6SM FEW220
     FM111700 28012KT P6SM FEW120 SCT220
     FM112200 26010KT P6SM SCT120 BKN220
     FM120400 30008KT P6SM FEW130 SCT220=



000
FTUS45 KBOU 110902 AAA
TAFBJC
TAF AMD
KBJC 110902Z 1109/1206 30012KT P6SM FEW220
     FM111700 32010KT P6SM FEW120 SCT220
     FM112200 26006KT P6SM SCT120 BKN220
     FM120400 21007KT P6SM FEW130 SCT220=



000
FTUS45 KBOU 110858 AAA
TAFDEN
TAF AMD
KDEN 110858Z 1109/1212 19007KT P6SM FEW220
     FM111700 26010KT P6SM FEW120 SCT220
     FM112100 32008KT P6SM SCT120 BKN200
     FM120100 05006KT P6SM SCT130 BKN220
     FM120400 23009KT P6SM FEW140 SCT220=



000
FTUS45 KBOU 110858 AAA
TAFDEN
TAF AMD
KDEN 110858Z 1109/1212 19007KT P6SM FEW220
     FM111700 26010KT P6SM FEW120 SCT220
     FM112100 32008KT P6SM SCT120 BKN200
     FM120100 05006KT P6SM SCT130 BKN220
     FM120400 23009KT P6SM FEW140 SCT220=



000
FTUS45 KBOU 110858 AAA
TAFDEN
TAF AMD
KDEN 110858Z 1109/1212 19007KT P6SM FEW220
     FM111700 26010KT P6SM FEW120 SCT220
     FM112100 32008KT P6SM SCT120 BKN200
     FM120100 05006KT P6SM SCT130 BKN220
     FM120400 23009KT P6SM FEW140 SCT220=



000
FTUS45 KBOU 110539
TAFAPA
TAF
KAPA 110539Z 1106/1206 VRB05KT P6SM FEW220
     FM110800 17007KT P6SM SCT220
     FM111700 24006KT P6SM FEW120 SCT220
     FM112000 34008KT P6SM SCT120 BKN200
     FM112300 03006KT P6SM SCT130 BKN220
     FM120400 18007KT P6SM FEW140 SCT220=



000
FTUS45 KBOU 110539
TAFDEN
TAF
KDEN 110539Z 1106/1212 16006KT P6SM FEW220
     FM110800 20009KT P6SM SCT220
     FM111700 26010KT P6SM FEW120 SCT220
     FM112100 32008KT P6SM SCT120 BKN200
     FM120100 05006KT P6SM SCT130 BKN220
     FM120400 23009KT P6SM FEW140 SCT220=



000
FTUS45 KBOU 110539
TAFBJC
TAF
KBJC 110539Z 1106/1206 28008KT P6SM FEW220
      TEMPO 1106/1108 26010G18KT
     FM110800 24008KT P6SM SCT220
     FM111700 32010KT P6SM FEW120 SCT220
     FM112200 26006KT P6SM SCT120 BKN220
     FM120400 21007KT P6SM FEW130 SCT220=



000
FTUS45 KBOU 110539
TAFDEN
TAF
KDEN 110539Z 1106/1212 16006KT P6SM FEW220
     FM110800 20009KT P6SM SCT220
     FM111700 26010KT P6SM FEW120 SCT220
     FM112100 32008KT P6SM SCT120 BKN200
     FM120100 05006KT P6SM SCT130 BKN220
     FM120400 23009KT P6SM FEW140 SCT220=



000
FTUS45 KBOU 110539
TAFAPA
TAF
KAPA 110539Z 1106/1206 VRB05KT P6SM FEW220
     FM110800 17007KT P6SM SCT220
     FM111700 24006KT P6SM FEW120 SCT220
     FM112000 34008KT P6SM SCT120 BKN200
     FM112300 03006KT P6SM SCT130 BKN220
     FM120400 18007KT P6SM FEW140 SCT220=



000
FTUS45 KBOU 110539
TAFAPA
TAF
KAPA 110539Z 1106/1206 VRB05KT P6SM FEW220
     FM110800 17007KT P6SM SCT220
     FM111700 24006KT P6SM FEW120 SCT220
     FM112000 34008KT P6SM SCT120 BKN200
     FM112300 03006KT P6SM SCT130 BKN220
     FM120400 18007KT P6SM FEW140 SCT220=



000
FTUS45 KBOU 110539
TAFBJC
TAF
KBJC 110539Z 1106/1206 28008KT P6SM FEW220
      TEMPO 1106/1108 26010G18KT
     FM110800 24008KT P6SM SCT220
     FM111700 32010KT P6SM FEW120 SCT220
     FM112200 26006KT P6SM SCT120 BKN220
     FM120400 21007KT P6SM FEW130 SCT220=



000
FTUS45 KBOU 110354 AAB
TAFBJC
TAF AMD
KBJC 110354Z 1104/1124 24006KT P6SM SCT140 BKN200
      TEMPO 1104/1106 26010G20KT
     FM110700 23007KT P6SM FEW140 SCT220
     FM111800 32008KT P6SM FEW120 SCT220=



000
FTUS45 KBOU 110350 AAC
TAFAPA
TAF AMD
KAPA 110350Z 1104/1124 30011KT P6SM SCT140 BKN220
     FM110500 26009KT P6SM FEW140 BKN220
     FM110700 18007KT P6SM SCT220
     FM111800 30009KT P6SM FEW120 SCT220
      TEMPO 1120/1124 31013G20KT=



000
FTUS45 KBOU 110301 AAB
TAFDEN
TAF AMD
KDEN 110301Z 1103/1206 29011KT P6SM FEW120 BKN220
     FM110500 25010KT P6SM FEW130 BKN220
     FM110700 21009KT P6SM FEW140 BKN220
     FM112100 16006KT P6SM FEW140 BKN220=



000
FTUS45 KBOU 110301 AAB
TAFDEN
TAF AMD
KDEN 110301Z 1103/1206 29011KT P6SM FEW120 BKN220
     FM110500 25010KT P6SM FEW130 BKN220
     FM110700 21009KT P6SM FEW140 BKN220
     FM112100 16006KT P6SM FEW140 BKN220=



000
FTUS45 KBOU 110200 AAB
TAFAPA
TAF AMD
KAPA 110200Z 1102/1124 33008KT P6SM BKN140 BKN200
      TEMPO 1102/1103 32014G22KT
     FM110300 27007KT P6SM SCT140 BKN200
     FM110500 19006KT P6SM FEW140 BKN220
     FM112100 16006KT P6SM FEW140 BKN220=



000
FTUS45 KBOU 110149 AAA
TAFBJC
TAF AMD
KBJC 110149Z 1102/1124 26013KT P6SM FEW130 BKN220
      TEMPO 1102/1106 29016G24KT
     FM110600 25009KT P6SM FEW140 BKN220
     FM111100 20006KT P6SM FEW220
     FM111700 VRB05KT P6SM FEW140 BKN220=



000
FTUS45 KBOU 110149 AAA
TAFBJC
TAF AMD
KBJC 110149Z 1102/1124 26013KT P6SM FEW130 BKN220
      TEMPO 1102/1106 29016G24KT
     FM110600 25009KT P6SM FEW140 BKN220
     FM111100 20006KT P6SM FEW220
     FM111700 VRB05KT P6SM FEW140 BKN220=



000
FTUS45 KBOU 110149 AAA
TAFBJC
TAF AMD
KBJC 110149Z 1102/1124 26013KT P6SM FEW130 BKN220
      TEMPO 1102/1106 29016G24KT
     FM110600 25009KT P6SM FEW140 BKN220
     FM111100 20006KT P6SM FEW220
     FM111700 VRB05KT P6SM FEW140 BKN220=



000
FTUS45 KBOU 110141 AAA
TAFDEN
TAF AMD
KDEN 110141Z 1102/1206 32013KT P6SM FEW120 BKN220
     FM110400 27011KT P6SM FEW130 BKN220
     FM110700 22009KT P6SM FEW140 BKN220
     FM112100 16006KT P6SM FEW140 BKN220=



000
FTUS45 KBOU 110141 AAA
TAFDEN
TAF AMD
KDEN 110141Z 1102/1206 32013KT P6SM FEW120 BKN220
     FM110400 27011KT P6SM FEW130 BKN220
     FM110700 22009KT P6SM FEW140 BKN220
     FM112100 16006KT P6SM FEW140 BKN220=



000
FTUS45 KBOU 110141 AAA
TAFDEN
TAF AMD
KDEN 110141Z 1102/1206 32013KT P6SM FEW120 BKN220
     FM110400 27011KT P6SM FEW130 BKN220
     FM110700 22009KT P6SM FEW140 BKN220
     FM112100 16006KT P6SM FEW140 BKN220=



000
FTUS45 KBOU 110046 AAA
TAFAPA
TAF AMD
KAPA 110046Z 1101/1124 34006KT P6SM FEW150 BKN220
     FM110200 VRB05KT P6SM FEW150 BKN220
     FM110300 20008KT P6SM SCT150 BKN220
     FM112100 16006KT P6SM FEW140 BKN200=



000
FTUS45 KBOU 110046 AAA
TAFAPA
TAF AMD
KAPA 110046Z 1101/1124 34006KT P6SM FEW150 BKN220
     FM110200 VRB05KT P6SM FEW150 BKN220
     FM110300 20008KT P6SM SCT150 BKN220
     FM112100 16006KT P6SM FEW140 BKN200=



000
FTUS45 KBOU 102322
TAFDEN
TAF
KDEN 102322Z 1100/1206 28014KT P6SM FEW150 BKN220
     FM110300 25010KT P6SM SCT150 BKN220
     FM110600 22010KT P6SM SCT150 BKN200
     FM112100 16006KT P6SM FEW140 BKN200=



000
FTUS45 KBOU 102322
TAFDEN
TAF
KDEN 102322Z 1100/1206 28014KT P6SM FEW150 BKN220
     FM110300 25010KT P6SM SCT150 BKN220
     FM110600 22010KT P6SM SCT150 BKN200
     FM112100 16006KT P6SM FEW140 BKN200=



000
FTUS45 KBOU 102322
TAFBJC
TAF
KBJC 102322Z 1100/1124 27015G25KT P6SM FEW150 BKN220
     FM110200 26012KT P6SM SCT150 BKN220
      TEMPO 1110/1114 26015G25KT
     FM111700 VRB05KT P6SM SCT140 BKN220=



000
FTUS45 KBOU 102322
TAFAPA
TAF
KAPA 102322Z 1100/1124 24005KT P6SM FEW150 BKN220
     FM110200 21009KT P6SM SCT150 BKN220
     FM112100 16006KT P6SM FEW140 BKN200=



000
FTUS45 KBOU 102322
TAFAPA
TAF
KAPA 102322Z 1100/1124 24005KT P6SM FEW150 BKN220
     FM110200 21009KT P6SM SCT150 BKN220
     FM112100 16006KT P6SM FEW140 BKN200=



000
FTUS45 KBOU 102322
TAFBJC
TAF
KBJC 102322Z 1100/1124 27015G25KT P6SM FEW150 BKN220
     FM110200 26012KT P6SM SCT150 BKN220
      TEMPO 1110/1114 26015G25KT
     FM111700 VRB05KT P6SM SCT140 BKN220=



000
FTUS45 KBOU 102322
TAFBJC
TAF
KBJC 102322Z 1100/1124 27015G25KT P6SM FEW150 BKN220
     FM110200 26012KT P6SM SCT150 BKN220
      TEMPO 1110/1114 26015G25KT
     FM111700 VRB05KT P6SM SCT140 BKN220=



000
FTUS45 KBOU 102322
TAFAPA
TAF
KAPA 102322Z 1100/1124 24005KT P6SM FEW150 BKN220
     FM110200 21009KT P6SM SCT150 BKN220
     FM112100 16006KT P6SM FEW140 BKN200=



000
FTUS45 KBOU 102322
TAFDEN
TAF
KDEN 102322Z 1100/1206 28014KT P6SM FEW150 BKN220
     FM110300 25010KT P6SM SCT150 BKN220
     FM110600 22010KT P6SM SCT150 BKN200
     FM112100 16006KT P6SM FEW140 BKN200=



000
FTUS45 KBOU 102302 AAB
TAFAPA
TAF AMD
KAPA 102302Z 1023/1118 34007KT P6SM FEW150 BKN220
     FM110100 VRB05KT P6SM FEW150 BKN220
     FM110300 21008KT P6SM SCT150 BKN220=



000
FTUS45 KBOU 102302 AAB
TAFAPA
TAF AMD
KAPA 102302Z 1023/1118 34007KT P6SM FEW150 BKN220
     FM110100 VRB05KT P6SM FEW150 BKN220
     FM110300 21008KT P6SM SCT150 BKN220=



000
FTUS45 KBOU 102302 AAB
TAFAPA
TAF AMD
KAPA 102302Z 1023/1118 34007KT P6SM FEW150 BKN220
     FM110100 VRB05KT P6SM FEW150 BKN220
     FM110300 21008KT P6SM SCT150 BKN220=



000
FTUS45 KBOU 102300 AAB
TAFDEN
TAF AMD
KDEN 102300Z 1023/1124 27014KT P6SM FEW150 BKN220
     FM110200 27009KT P6SM SCT150 BKN220
     FM110500 22010KT P6SM FEW150 BKN200=



000
FTUS45 KBOU 102300 AAB
TAFDEN
TAF AMD
KDEN 102300Z 1023/1124 27014KT P6SM FEW150 BKN220
     FM110200 27009KT P6SM SCT150 BKN220
     FM110500 22010KT P6SM FEW150 BKN200=



000
FTUS45 KBOU 102300 AAB
TAFDEN
TAF AMD
KDEN 102300Z 1023/1124 27014KT P6SM FEW150 BKN220
     FM110200 27009KT P6SM SCT150 BKN220
     FM110500 22010KT P6SM FEW150 BKN200=



000
FTUS45 KBOU 102107 AAA
TAFAPA
TAF AMD
KAPA 102107Z 1021/1118 29014G24KT P6SM FEW150 SCT220
     FM102300 31014KT P6SM FEW150 SCT220
     FM110000 27008KT P6SM FEW150 BKN220
     FM110500 21008KT P6SM FEW150=



000
FTUS45 KBOU 102107 AAA
TAFDEN
TAF AMD
KDEN 102107Z 1021/1124 30014KT P6SM FEW150 SCT220
     FM110100 27009KT P6SM SCT150 BKN220
     FM110500 22010KT P6SM FEW150 BKN200=



000
FTUS45 KBOU 102107 AAA
TAFBJC
TAF AMD
KBJC 102107Z 1021/1118 27015G25KT P6SM FEW150 SCT220
     FM110200 26012KT P6SM FEW150 BKN220
      TEMPO 1110/1114 26015G25KT=



000
FTUS45 KBOU 101720
TAFDEN
TAF
KDEN 101720Z 1018/1124 27014G22KT P6SM FEW150
     FM110000 27012KT P6SM FEW150 BKN220
     FM110500 22010KT P6SM FEW150=



000
FTUS45 KBOU 101720
TAFAPA
TAF
KAPA 101720Z 1018/1118 25011KT P6SM FEW150
     FM102100 31011KT P6SM FEW150
     FM110000 27008KT P6SM FEW150 BKN220
     FM110500 21008KT P6SM FEW150=



000
FTUS45 KBOU 101720
TAFBJC
TAF
KBJC 101720Z 1018/1118 29014G26KT P6SM FEW220
     FM110200 26012KT P6SM FEW150 BKN220
      TEMPO 1110/1114 26015G25KT=



000
FTUS45 KBOU 101507 AAA
TAFDEN
TAF AMD
KDEN 101507Z 1015/1118 23012KT P6SM FEW150
     FM101700 26013G20KT P6SM FEW150
     FM102100 31013G20KT P6SM BKN220
     FM110000 27008KT P6SM BKN220
     FM110400 21012KT P6SM FEW140 SCT200=



000
FTUS45 KBOU 101128
TAFAPA
TAF
KAPA 101128Z 1012/1112 23013KT P6SM SKC
     FM101600 26011KT P6SM SCT220
     FM102100 31011G18KT P6SM BKN220
     FM110000 27008KT P6SM BKN220
     FM110400 21010KT P6SM FEW120 SCT200=



000
FTUS45 KBOU 101128
TAFBJC
TAF
KBJC 101128Z 1012/1112 28018G30KT P6SM FEW200
     FM101900 30013G22KT P6SM FEW140 BKN200
     FM110200 26009KT P6SM SCT220
     FM111000 26012G20KT P6SM SCT220=



000
FTUS45 KBOU 101128
TAFDEN
TAF
KDEN 101128Z 1012/1118 23014KT P6SM SKC
     FM101600 26012G18KT P6SM SCT220
     FM102100 31013G20KT P6SM BKN220
     FM110000 27008KT P6SM BKN220
     FM110400 21012KT P6SM FEW140 SCT200=



000
FTUS45 KBOU 101128
TAFDEN
TAF
KDEN 101128Z 1012/1118 23014KT P6SM SKC
     FM101600 26012G18KT P6SM SCT220
     FM102100 31013G20KT P6SM BKN220
     FM110000 27008KT P6SM BKN220
     FM110400 21012KT P6SM FEW140 SCT200=



000
FTUS45 KBOU 101128
TAFBJC
TAF
KBJC 101128Z 1012/1112 28018G30KT P6SM FEW200
     FM101900 30013G22KT P6SM FEW140 BKN200
     FM110200 26009KT P6SM SCT220
     FM111000 26012G20KT P6SM SCT220=



000
FTUS45 KBOU 101128
TAFAPA
TAF
KAPA 101128Z 1012/1112 23013KT P6SM SKC
     FM101600 26011KT P6SM SCT220
     FM102100 31011G18KT P6SM BKN220
     FM110000 27008KT P6SM BKN220
     FM110400 21010KT P6SM FEW120 SCT200=



000
FTUS45 KBOU 100953 AAA
TAFBJC
TAF AMD
KBJC 100953Z 1010/1106 28016G28KT P6SM SKC
     FM101200 28018G30KT P6SM FEW140 SCT200
     FM101900 30013G22KT P6SM FEW140 BKN200
     FM110200 26009KT P6SM SCT220=



000
FTUS45 KBOU 100953 AAA
TAFBJC
TAF AMD
KBJC 100953Z 1010/1106 28016G28KT P6SM SKC
     FM101200 28018G30KT P6SM FEW140 SCT200
     FM101900 30013G22KT P6SM FEW140 BKN200
     FM110200 26009KT P6SM SCT220=



000
FTUS45 KBOU 100953 AAA
TAFBJC
TAF AMD
KBJC 100953Z 1010/1106 28016G28KT P6SM SKC
     FM101200 28018G30KT P6SM FEW140 SCT200
     FM101900 30013G22KT P6SM FEW140 BKN200
     FM110200 26009KT P6SM SCT220=



000
FTUS45 KBOU 100902 AAA
TAFDEN
TAF AMD
KDEN 100902Z 1009/1112 22014KT P6SM SKC
     FM101700 26012KT P6SM SCT220
     FM102100 31011G18KT P6SM BKN220
     FM110000 27008KT P6SM BKN220
     FM110400 21010KT P6SM FEW140 SCT200=



000
FTUS45 KBOU 100539
TAFDEN
TAF
KDEN 100539Z 1006/1112 22013KT P6SM SKC
     FM101700 26012KT P6SM BKN220
     FM102300 31010KT P6SM SCT250
     FM110200 27008KT P6SM FEW220
     FM110600 21007KT P6SM FEW120 SCT200=



000
FTUS45 KBOU 100539
TAFBJC
TAF
KBJC 100539Z 1006/1106 28014KT P6SM SKC
     FM100800 26015G24KT P6SM FEW220
     FM101200 28018G30KT P6SM FEW100 BKN220
     FM101900 31012G18KT P6SM FEW120 SCT220
     FM110200 25009KT P6SM SCT220=



000
FTUS45 KBOU 100539
TAFBJC
TAF
KBJC 100539Z 1006/1106 28014KT P6SM SKC
     FM100800 26015G24KT P6SM FEW220
     FM101200 28018G30KT P6SM FEW100 BKN220
     FM101900 31012G18KT P6SM FEW120 SCT220
     FM110200 25009KT P6SM SCT220=



000
FTUS45 KBOU 100539
TAFDEN
TAF
KDEN 100539Z 1006/1112 22013KT P6SM SKC
     FM101700 26012KT P6SM BKN220
     FM102300 31010KT P6SM SCT250
     FM110200 27008KT P6SM FEW220
     FM110600 21007KT P6SM FEW120 SCT200=



000
FTUS45 KBOU 100539
TAFAPA
TAF
KAPA 100539Z 1006/1106 20006KT P6SM SKC
     FM101100 25007KT P6SM FEW220
     FM102000 29010KT P6SM SCT240
     FM110100 23007KT P6SM FEW220
     FM110400 18006KT P6SM FEW120 SCT200=



000
FTUS45 KBOU 100539
TAFBJC
TAF
KBJC 100539Z 1006/1106 28014KT P6SM SKC
     FM100800 26015G24KT P6SM FEW220
     FM101200 28018G30KT P6SM FEW100 BKN220
     FM101900 31012G18KT P6SM FEW120 SCT220
     FM110200 25009KT P6SM SCT220=



000
FTUS45 KBOU 100539
TAFAPA
TAF
KAPA 100539Z 1006/1106 20006KT P6SM SKC
     FM101100 25007KT P6SM FEW220
     FM102000 29010KT P6SM SCT240
     FM110100 23007KT P6SM FEW220
     FM110400 18006KT P6SM FEW120 SCT200=



000
FTUS45 KBOU 100539
TAFAPA
TAF
KAPA 100539Z 1006/1106 20006KT P6SM SKC
     FM101100 25007KT P6SM FEW220
     FM102000 29010KT P6SM SCT240
     FM110100 23007KT P6SM FEW220
     FM110400 18006KT P6SM FEW120 SCT200=



000
FTUS45 KBOU 100539
TAFDEN
TAF
KDEN 100539Z 1006/1112 22013KT P6SM SKC
     FM101700 26012KT P6SM BKN220
     FM102300 31010KT P6SM SCT250
     FM110200 27008KT P6SM FEW220
     FM110600 21007KT P6SM FEW120 SCT200=



000
FTUS45 KBOU 100242 AAA
TAFBJC
TAF AMD
KBJC 100242Z 1003/1024 23006KT P6SM SKC
     FM100800 25010KT P6SM SKC
     FM101100 27015G25KT P6SM SKC
     FM101800 29018G28KT P6SM FEW250=



000
FTUS45 KBOU 100241 AAA
TAFAPA
TAF AMD
KAPA 100241Z 1003/1024 19010KT P6SM SKC
     FM100800 23006KT P6SM SKC
     FM101700 29008KT P6SM FEW220=



000
FTUS45 KBOU 100237 AAA
TAFDEN
TAF AMD
KDEN 100237Z 1003/1106 19014KT P6SM SKC
     FM100500 23011KT P6SM SKC
     FM101700 26008KT P6SM FEW220
     FM102000 29012KT P6SM SCT250=



000
FTUS45 KBOU 092338
TAFBJC
TAF
KBJC 092338Z 1000/1024 13005KT P6SM FEW250
     FM100100 VRB04KT P6SM SKC
     FM100300 25010KT P6SM SKC
     FM101100 27015G25KT P6SM SKC
     FM101800 29018G28KT P6SM FEW250=



000
FTUS45 KBOU 092338
TAFAPA
TAF
KAPA 092338Z 1000/1024 13004KT P6SM FEW250
     FM100100 16006KT P6SM FEW250
     FM100200 19009KT P6SM SKC
     FM101800 25009KT P6SM FEW220=



000
FTUS45 KBOU 092338
TAFDEN
TAF
KDEN 092338Z 1000/1106 12005KT P6SM FEW250
     FM100100 16007KT P6SM FEW250
     FM100200 20011KT P6SM SKC
     FM101700 25010KT P6SM FEW220
     FM102000 29012KT P6SM SCT250=



000
FTUS45 KBOU 092052 AAA
TAFDEN
TAF AMD
KDEN 092052Z 0921/1024 VRB04KT P6SM FEW250
     FM100100 21011KT P6SM SKC
     FM101800 30007KT P6SM FEW220=



000
FTUS45 KBOU 092052 AAA
TAFDEN
TAF AMD
KDEN 092052Z 0921/1024 VRB04KT P6SM FEW250
     FM100100 21011KT P6SM SKC
     FM101800 30007KT P6SM FEW220=



    US Dept of Commerce
    National Oceanic and Atmospheric Administration
    National Weather Service
    1325 East West Highway
    Silver Spring, MD 20910
    Page Author: NWS Internet Services Team
Disclaimer
Information Quality
Credits
Glossary
Privacy Policy
Freedom of Information Act (FOIA)
About Us
Career Opportunities